sensor_id;sensor_type;location;lat;lon;timestamp;temperature;humidity
67748;HTU21D;54543;50.712;6.070;2023-02-28T00:00:10;-0.75;74.88
67748;HTU21D;54543;50.712;6.070;2023-02-28T00:02:38;-0.80;74.92
67748;HTU21D;54543;50.712;6.070;2023-02-28T00:05:04;-0.81;75.10
67748;HTU21D;54543;50.712;6.070;2023-02-28T00:07:30;-0.86;75.09
67748;HTU21D;54543;50.712;6.070;2023-02-28T00:09:56;-0.89;75.15
67748;HTU21D;54543;50.712;6.070;2023-02-28T00:12:22;-0.91;75.27
67748;HTU21D;54543;50.712;6.070;2023-02-28T00:14:48;-0.94;75.20
67748;HTU21D;54543;50.712;6.070;2023-02-28T00:17:14;-0.96;75.31
67748;HTU21D;54543;50.712;6.070;2023-02-28T00:19:39;-1.00;75.41
67748;HTU21D;54543;50.712;6.070;2023-02-28T00:22:05;-1.02;75.35
67748;HTU21D;54543;50.712;6.070;2023-02-28T00:24:31;-1.06;75.45
67748;HTU21D;54543;50.712;6.070;2023-02-28T00:26:56;-1.09;75.53
67748;HTU21D;54543;50.712;6.070;2023-02-28T00:29:22;-1.11;75.53
67748;HTU21D;54543;50.712;6.070;2023-02-28T00:31:47;-1.15;75.57
67748;HTU21D;54543;50.712;6.070;2023-02-28T00:34:13;-1.17;75.89
67748;HTU21D;54543;50.712;6.070;2023-02-28T00:36:38;-1.19;75.79
67748;HTU21D;54543;50.712;6.070;2023-02-28T00:39:06;-1.21;75.71
67748;HTU21D;54543;50.712;6.070;2023-02-28T00:41:31;-1.25;75.76
67748;HTU21D;54543;50.712;6.070;2023-02-28T00:43:56;-1.27;75.90
67748;HTU21D;54543;50.712;6.070;2023-02-28T00:46:22;-1.28;75.99
67748;HTU21D;54543;50.712;6.070;2023-02-28T00:48:47;-1.30;76.10
67748;HTU21D;54543;50.712;6.070;2023-02-28T00:51:13;-1.32;76.14
67748;HTU21D;54543;50.712;6.070;2023-02-28T00:53:38;-1.35;76.12
67748;HTU21D;54543;50.712;6.070;2023-02-28T00:56:04;-1.38;76.20
67748;HTU21D;54543;50.712;6.070;2023-02-28T00:58:30;-1.39;76.15
67748;HTU21D;54543;50.712;6.070;2023-02-28T01:00:55;-1.40;76.18
67748;HTU21D;54543;50.712;6.070;2023-02-28T01:03:23;-1.43;76.31
67748;HTU21D;54543;50.712;6.070;2023-02-28T01:05:48;-1.45;76.47
67748;HTU21D;54543;50.712;6.070;2023-02-28T01:08:14;-1.48;76.38
67748;HTU21D;54543;50.712;6.070;2023-02-28T01:10:41;-1.49;76.52
67748;HTU21D;54543;50.712;6.070;2023-02-28T01:13:06;-1.50;76.67
67748;HTU21D;54543;50.712;6.070;2023-02-28T01:15:32;-1.53;76.75
67748;HTU21D;54543;50.712;6.070;2023-02-28T01:17:58;-1.53;76.58
67748;HTU21D;54543;50.712;6.070;2023-02-28T01:20:24;-1.54;76.53
67748;HTU21D;54543;50.712;6.070;2023-02-28T01:22:49;-1.56;76.54
67748;HTU21D;54543;50.712;6.070;2023-02-28T01:25:15;-1.57;76.61
67748;HTU21D;54543;50.712;6.070;2023-02-28T01:27:41;-1.60;76.67
67748;HTU21D;54543;50.712;6.070;2023-02-28T01:30:08;-1.60;76.61
67748;HTU21D;54543;50.712;6.070;2023-02-28T01:32:35;-1.63;76.68
67748;HTU21D;54543;50.712;6.070;2023-02-28T01:35:01;-1.63;76.79
67748;HTU21D;54543;50.712;6.070;2023-02-28T01:37:26;-1.64;76.75
67748;HTU21D;54543;50.712;6.070;2023-02-28T01:39:52;-1.68;76.63
67748;HTU21D;54543;50.712;6.070;2023-02-28T01:42:18;-1.70;76.76
67748;HTU21D;54543;50.712;6.070;2023-02-28T01:47:36;-1.73;77.03
67748;HTU21D;54543;50.712;6.070;2023-02-28T01:50:07;-1.75;76.94
67748;HTU21D;54543;50.712;6.070;2023-02-28T01:52:35;-1.77;76.99
67748;HTU21D;54543;50.712;6.070;2023-02-28T01:55:01;-1.80;76.94
67748;HTU21D;54543;50.712;6.070;2023-02-28T01:57:32;-1.84;77.11
67748;HTU21D;54543;50.712;6.070;2023-02-28T02:00:09;-1.87;77.11
67748;HTU21D;54543;50.712;6.070;2023-02-28T02:02:36;-1.88;77.10
67748;HTU21D;54543;50.712;6.070;2023-02-28T02:05:11;-1.92;77.21
67748;HTU21D;54543;50.712;6.070;2023-02-28T02:07:39;-1.93;77.34
67748;HTU21D;54543;50.712;6.070;2023-02-28T02:12:58;-1.98;77.47
67748;HTU21D;54543;50.712;6.070;2023-02-28T02:15:32;-2.01;77.52
67748;HTU21D;54543;50.712;6.070;2023-02-28T02:26:34;-2.07;77.63
67748;HTU21D;54543;50.712;6.070;2023-02-28T02:37:29;-2.15;77.83
67748;HTU21D;54543;50.712;6.070;2023-02-28T02:40:13;-2.16;77.66
67748;HTU21D;54543;50.712;6.070;2023-02-28T02:43:36;-2.18;78.21
67748;HTU21D;54543;50.712;6.070;2023-02-28T02:45:56;-2.20;77.82
67748;HTU21D;54543;50.712;6.070;2023-02-28T02:48:30;-2.24;77.94
67748;HTU21D;54543;50.712;6.070;2023-02-28T02:50:59;-2.24;77.78
67748;HTU21D;54543;50.712;6.070;2023-02-28T02:53:32;-2.27;77.90
67748;HTU21D;54543;50.712;6.070;2023-02-28T02:56:01;-2.28;77.95
67748;HTU21D;54543;50.712;6.070;2023-02-28T02:58:33;-2.30;77.97
67748;HTU21D;54543;50.712;6.070;2023-02-28T03:01:01;-2.31;78.00
67748;HTU21D;54543;50.712;6.070;2023-02-28T03:03:29;-2.31;78.06
67748;HTU21D;54543;50.712;6.070;2023-02-28T03:06:00;-2.34;78.08
67748;HTU21D;54543;50.712;6.070;2023-02-28T03:08:27;-2.35;78.10
67748;HTU21D;54543;50.712;6.070;2023-02-28T03:10:58;-2.36;78.10
67748;HTU21D;54543;50.712;6.070;2023-02-28T03:19:17;-2.42;78.45
67748;HTU21D;54543;50.712;6.070;2023-02-28T03:24:32;-2.47;78.21
67748;HTU21D;54543;50.712;6.070;2023-02-28T03:27:14;-2.49;78.56
67748;HTU21D;54543;50.712;6.070;2023-02-28T03:29:47;-2.51;78.27
67748;HTU21D;54543;50.712;6.070;2023-02-28T03:32:15;-2.51;78.45
67748;HTU21D;54543;50.712;6.070;2023-02-28T03:34:49;-2.53;78.50
67748;HTU21D;54543;50.712;6.070;2023-02-28T03:37:19;-2.53;78.69
67748;HTU21D;54543;50.712;6.070;2023-02-28T03:39:51;-2.56;78.72
67748;HTU21D;54543;50.712;6.070;2023-02-28T03:42:21;-2.54;78.66
67748;HTU21D;54543;50.712;6.070;2023-02-28T03:44:54;-2.53;78.69
67748;HTU21D;54543;50.712;6.070;2023-02-28T03:47:27;-2.52;78.82
67748;HTU21D;54543;50.712;6.070;2023-02-28T03:49:58;-2.50;78.84
67748;HTU21D;54543;50.712;6.070;2023-02-28T03:52:27;-2.49;78.76
67748;HTU21D;54543;50.712;6.070;2023-02-28T03:54:58;-2.47;78.88
67748;HTU21D;54543;50.712;6.070;2023-02-28T03:57:34;-2.47;78.79
67748;HTU21D;54543;50.712;6.070;2023-02-28T04:00:13;-2.49;78.95
67748;HTU21D;54543;50.712;6.070;2023-02-28T04:02:40;-2.50;78.80
67748;HTU21D;54543;50.712;6.070;2023-02-28T04:05:06;-2.51;79.05
67748;HTU21D;54543;50.712;6.070;2023-02-28T04:07:33;-2.52;79.19
67748;HTU21D;54543;50.712;6.070;2023-02-28T04:09:59;-2.57;79.21
67748;HTU21D;54543;50.712;6.070;2023-02-28T04:12:25;-2.60;78.98
67748;HTU21D;54543;50.712;6.070;2023-02-28T04:14:50;-2.60;79.03
67748;HTU21D;54543;50.712;6.070;2023-02-28T04:17:16;-2.63;79.07
67748;HTU21D;54543;50.712;6.070;2023-02-28T04:19:42;-2.66;79.08
67748;HTU21D;54543;50.712;6.070;2023-02-28T04:22:09;-2.71;79.07
67748;HTU21D;54543;50.712;6.070;2023-02-28T04:24:35;-2.73;79.14
67748;HTU21D;54543;50.712;6.070;2023-02-28T04:27:01;-2.74;79.23
67748;HTU21D;54543;50.712;6.070;2023-02-28T04:29:29;-2.78;79.34
67748;HTU21D;54543;50.712;6.070;2023-02-28T04:31:55;-2.79;79.46
67748;HTU21D;54543;50.712;6.070;2023-02-28T04:34:23;-2.82;79.64
67748;HTU21D;54543;50.712;6.070;2023-02-28T04:36:49;-2.83;79.72
67748;HTU21D;54543;50.712;6.070;2023-02-28T04:39:16;-2.84;79.58
67748;HTU21D;54543;50.712;6.070;2023-02-28T04:41:44;-2.88;79.46
67748;HTU21D;54543;50.712;6.070;2023-02-28T04:44:10;-2.90;79.49
67748;HTU21D;54543;50.712;6.070;2023-02-28T04:46:36;-2.92;79.73
67748;HTU21D;54543;50.712;6.070;2023-02-28T04:49:02;-2.94;79.74
67748;HTU21D;54543;50.712;6.070;2023-02-28T04:51:28;-2.97;79.78
67748;HTU21D;54543;50.712;6.070;2023-02-28T04:53:54;-3.01;79.75
67748;HTU21D;54543;50.712;6.070;2023-02-28T04:56:20;-3.01;80.07
67748;HTU21D;54543;50.712;6.070;2023-02-28T04:58:46;-3.02;80.19
67748;HTU21D;54543;50.712;6.070;2023-02-28T05:01:31;-3.04;80.58
67748;HTU21D;54543;50.712;6.070;2023-02-28T05:03:58;-3.06;81.68
67748;HTU21D;54543;50.712;6.070;2023-02-28T05:06:26;-3.08;80.57
67748;HTU21D;54543;50.712;6.070;2023-02-28T05:08:52;-3.09;80.42
67748;HTU21D;54543;50.712;6.070;2023-02-28T05:11:21;-3.12;80.30
67748;HTU21D;54543;50.712;6.070;2023-02-28T05:13:47;-3.13;80.24
67748;HTU21D;54543;50.712;6.070;2023-02-28T05:16:13;-3.17;80.13
67748;HTU21D;54543;50.712;6.070;2023-02-28T05:18:39;-3.19;80.17
67748;HTU21D;54543;50.712;6.070;2023-02-28T05:21:05;-3.20;80.14
67748;HTU21D;54543;50.712;6.070;2023-02-28T05:23:31;-3.20;80.33
67748;HTU21D;54543;50.712;6.070;2023-02-28T05:25:57;-3.23;80.43
67748;HTU21D;54543;50.712;6.070;2023-02-28T05:28:23;-3.24;80.38
67748;HTU21D;54543;50.712;6.070;2023-02-28T05:30:49;-3.24;80.49
67748;HTU21D;54543;50.712;6.070;2023-02-28T05:33:14;-3.25;80.46
67748;HTU21D;54543;50.712;6.070;2023-02-28T05:35:41;-3.25;80.66
67748;HTU21D;54543;50.712;6.070;2023-02-28T05:38:08;-3.24;80.60
67748;HTU21D;54543;50.712;6.070;2023-02-28T05:40:34;-3.22;80.56
67748;HTU21D;54543;50.712;6.070;2023-02-28T05:43:00;-3.20;80.61
67748;HTU21D;54543;50.712;6.070;2023-02-28T05:45:25;-3.20;80.62
67748;HTU21D;54543;50.712;6.070;2023-02-28T05:47:54;-3.21;80.57
67748;HTU21D;54543;50.712;6.070;2023-02-28T05:50:20;-3.23;80.59
67748;HTU21D;54543;50.712;6.070;2023-02-28T05:52:50;-3.24;80.47
67748;HTU21D;54543;50.712;6.070;2023-02-28T05:55:15;-3.25;80.40
67748;HTU21D;54543;50.712;6.070;2023-02-28T05:57:41;-3.26;80.49
67748;HTU21D;54543;50.712;6.070;2023-02-28T06:00:08;-3.25;80.46
67748;HTU21D;54543;50.712;6.070;2023-02-28T06:02:34;-3.25;80.75
67748;HTU21D;54543;50.712;6.070;2023-02-28T06:04:59;-3.25;80.98
67748;HTU21D;54543;50.712;6.070;2023-02-28T06:07:25;-3.24;80.81
67748;HTU21D;54543;50.712;6.070;2023-02-28T06:09:50;-3.23;80.82
67748;HTU21D;54543;50.712;6.070;2023-02-28T06:12:16;-3.25;80.75
67748;HTU21D;54543;50.712;6.070;2023-02-28T06:14:41;-3.26;80.75
67748;HTU21D;54543;50.712;6.070;2023-02-28T06:17:08;-3.28;80.63
67748;HTU21D;54543;50.712;6.070;2023-02-28T06:19:34;-3.31;80.72
67748;HTU21D;54543;50.712;6.070;2023-02-28T06:22:04;-3.32;80.65
67748;HTU21D;54543;50.712;6.070;2023-02-28T06:24:30;-3.34;81.02
67748;HTU21D;54543;50.712;6.070;2023-02-28T06:26:57;-3.35;80.98
67748;HTU21D;54543;50.712;6.070;2023-02-28T06:29:24;-3.35;80.91
67748;HTU21D;54543;50.712;6.070;2023-02-28T06:31:50;-3.36;81.01
67748;HTU21D;54543;50.712;6.070;2023-02-28T06:34:16;-3.36;81.13
67748;HTU21D;54543;50.712;6.070;2023-02-28T06:36:42;-3.36;80.81
67748;HTU21D;54543;50.712;6.070;2023-02-28T06:39:08;-3.35;81.06
67748;HTU21D;54543;50.712;6.070;2023-02-28T06:41:34;-3.34;80.83
67748;HTU21D;54543;50.712;6.070;2023-02-28T06:44:12;-3.35;80.91
67748;HTU21D;54543;50.712;6.070;2023-02-28T06:46:40;-3.34;80.88
67748;HTU21D;54543;50.712;6.070;2023-02-28T06:49:07;-3.33;80.87
67748;HTU21D;54543;50.712;6.070;2023-02-28T06:51:37;-3.32;81.02
67748;HTU21D;54543;50.712;6.070;2023-02-28T06:54:03;-3.28;80.98
67748;HTU21D;54543;50.712;6.070;2023-02-28T06:56:29;-3.26;80.94
67748;HTU21D;54543;50.712;6.070;2023-02-28T06:58:55;-3.22;81.03
67748;HTU21D;54543;50.712;6.070;2023-02-28T07:01:21;-3.18;80.82
67748;HTU21D;54543;50.712;6.070;2023-02-28T07:03:49;-3.10;80.87
67748;HTU21D;54543;50.712;6.070;2023-02-28T07:06:18;-3.06;80.67
67748;HTU21D;54543;50.712;6.070;2023-02-28T07:08:44;-2.98;80.57
67748;HTU21D;54543;50.712;6.070;2023-02-28T07:11:10;-2.93;80.49
67748;HTU21D;54543;50.712;6.070;2023-02-28T07:13:36;-2.87;80.45
67748;HTU21D;54543;50.712;6.070;2023-02-28T07:16:04;-2.80;80.44
67748;HTU21D;54543;50.712;6.070;2023-02-28T07:18:30;-2.72;80.38
67748;HTU21D;54543;50.712;6.070;2023-02-28T07:20:56;-2.65;80.42
67748;HTU21D;54543;50.712;6.070;2023-02-28T07:23:22;-2.56;80.20
67748;HTU21D;54543;50.712;6.070;2023-02-28T07:25:47;-2.50;80.08
67748;HTU21D;54543;50.712;6.070;2023-02-28T07:28:13;-2.44;79.90
67748;HTU21D;54543;50.712;6.070;2023-02-28T07:30:40;-2.35;79.90
67748;HTU21D;54543;50.712;6.070;2023-02-28T07:33:05;-2.30;79.86
67748;HTU21D;54543;50.712;6.070;2023-02-28T07:35:31;-2.21;79.68
67748;HTU21D;54543;50.712;6.070;2023-02-28T07:37:58;-2.10;79.07
67748;HTU21D;54543;50.712;6.070;2023-02-28T07:40:24;-2.01;79.04
67748;HTU21D;54543;50.712;6.070;2023-02-28T07:42:50;-1.91;78.94
67748;HTU21D;54543;50.712;6.070;2023-02-28T07:45:16;-1.83;78.92
67748;HTU21D;54543;50.712;6.070;2023-02-28T07:47:43;-1.74;78.76
67748;HTU21D;54543;50.712;6.070;2023-02-28T07:50:10;-1.63;78.30
67748;HTU21D;54543;50.712;6.070;2023-02-28T07:52:37;-1.55;77.93
67748;HTU21D;54543;50.712;6.070;2023-02-28T07:55:03;-1.45;77.69
67748;HTU21D;54543;50.712;6.070;2023-02-28T07:57:30;-1.34;77.32
67748;HTU21D;54543;50.712;6.070;2023-02-28T07:59:56;-1.25;77.12
67748;HTU21D;54543;50.712;6.070;2023-02-28T08:02:22;-1.14;76.83
67748;HTU21D;54543;50.712;6.070;2023-02-28T08:04:47;-1.05;76.37
67748;HTU21D;54543;50.712;6.070;2023-02-28T08:07:14;-0.97;75.98
67748;HTU21D;54543;50.712;6.070;2023-02-28T08:09:41;-0.87;76.17
67748;HTU21D;54543;50.712;6.070;2023-02-28T08:12:07;-0.80;75.67
67748;HTU21D;54543;50.712;6.070;2023-02-28T08:14:34;-0.70;75.43
67748;HTU21D;54543;50.712;6.070;2023-02-28T08:16:59;-0.61;74.75
67748;HTU21D;54543;50.712;6.070;2023-02-28T08:19:25;-0.53;75.59
67748;HTU21D;54543;50.712;6.070;2023-02-28T08:21:51;-0.42;74.01
67748;HTU21D;54543;50.712;6.070;2023-02-28T08:24:16;-0.34;73.56
67748;HTU21D;54543;50.712;6.070;2023-02-28T08:26:42;-0.25;73.66
67748;HTU21D;54543;50.712;6.070;2023-02-28T08:29:07;-0.17;73.41
67748;HTU21D;54543;50.712;6.070;2023-02-28T08:31:33;-0.08;73.27
67748;HTU21D;54543;50.712;6.070;2023-02-28T08:34:07;0.02;72.70
67748;HTU21D;54543;50.712;6.070;2023-02-28T08:36:33;0.10;71.17
67748;HTU21D;54543;50.712;6.070;2023-02-28T08:38:58;0.18;71.66
67748;HTU21D;54543;50.712;6.070;2023-02-28T08:41:25;0.27;70.87
67748;HTU21D;54543;50.712;6.070;2023-02-28T08:43:51;0.33;70.75
67748;HTU21D;54543;50.712;6.070;2023-02-28T08:46:16;0.42;69.80
67748;HTU21D;54543;50.712;6.070;2023-02-28T08:48:42;0.50;69.44
67748;HTU21D;54543;50.712;6.070;2023-02-28T08:51:14;0.59;70.31
67748;HTU21D;54543;50.712;6.070;2023-02-28T08:53:41;0.68;68.76
67748;HTU21D;54543;50.712;6.070;2023-02-28T08:56:09;0.79;68.81
67748;HTU21D;54543;50.712;6.070;2023-02-28T08:58:36;0.89;68.52
67748;HTU21D;54543;50.712;6.070;2023-02-28T09:01:08;0.97;67.04
67748;HTU21D;54543;50.712;6.070;2023-02-28T09:03:34;1.08;68.18
67748;HTU21D;54543;50.712;6.070;2023-02-28T09:06:00;1.18;68.12
67748;HTU21D;54543;50.712;6.070;2023-02-28T09:08:29;1.29;67.73
67748;HTU21D;54543;50.712;6.070;2023-02-28T09:10:56;1.39;65.14
67748;HTU21D;54543;50.712;6.070;2023-02-28T09:13:24;1.47;65.56
67748;HTU21D;54543;50.712;6.070;2023-02-28T09:15:50;1.49;63.86
67748;HTU21D;54543;50.712;6.070;2023-02-28T09:18:16;1.52;66.81
67748;HTU21D;54543;50.712;6.070;2023-02-28T09:20:42;1.63;66.49
67748;HTU21D;54543;50.712;6.070;2023-02-28T09:23:10;1.70;64.90
67748;HTU21D;54543;50.712;6.070;2023-02-28T09:25:36;1.77;61.56
67748;HTU21D;54543;50.712;6.070;2023-02-28T09:28:03;1.80;65.43
67748;HTU21D;54543;50.712;6.070;2023-02-28T09:30:29;1.88;65.37
67748;HTU21D;54543;50.712;6.070;2023-02-28T09:32:55;1.97;64.57
67748;HTU21D;54543;50.712;6.070;2023-02-28T09:35:21;2.07;63.59
67748;HTU21D;54543;50.712;6.070;2023-02-28T09:37:48;2.06;61.88
67748;HTU21D;54543;50.712;6.070;2023-02-28T09:40:15;2.11;63.68
67748;HTU21D;54543;50.712;6.070;2023-02-28T09:42:45;2.17;61.30
67748;HTU21D;54543;50.712;6.070;2023-02-28T09:45:36;2.27;60.90
67748;HTU21D;54543;50.712;6.070;2023-02-28T09:48:23;2.41;58.77
67748;HTU21D;54543;50.712;6.070;2023-02-28T09:51:02;2.43;58.51
67748;HTU21D;54543;50.712;6.070;2023-02-28T09:53:35;2.45;59.03
67748;HTU21D;54543;50.712;6.070;2023-02-28T10:06:29;2.83;61.62
67748;HTU21D;54543;50.712;6.070;2023-02-28T10:09:15;2.97;56.23
67748;HTU21D;54543;50.712;6.070;2023-02-28T10:11:44;3.14;60.92
67748;HTU21D;54543;50.712;6.070;2023-02-28T10:14:19;3.39;56.87
67748;HTU21D;54543;50.712;6.070;2023-02-28T10:16:50;3.46;60.38
67748;HTU21D;54543;50.712;6.070;2023-02-28T10:19:30;3.41;60.22
67748;HTU21D;54543;50.712;6.070;2023-02-28T10:22:08;3.31;56.99
67748;HTU21D;54543;50.712;6.070;2023-02-28T10:24:46;3.32;54.71
67748;HTU21D;54543;50.712;6.070;2023-02-28T10:27:18;3.32;55.00
67748;HTU21D;54543;50.712;6.070;2023-02-28T10:29:46;3.20;57.70
67748;HTU21D;54543;50.712;6.070;2023-02-28T10:32:16;3.17;57.60
67748;HTU21D;54543;50.712;6.070;2023-02-28T10:34:42;3.18;56.54
67748;HTU21D;54543;50.712;6.070;2023-02-28T10:37:09;3.13;56.10
67748;HTU21D;54543;50.712;6.070;2023-02-28T10:39:45;3.11;51.08
67748;HTU21D;54543;50.712;6.070;2023-02-28T10:42:40;3.26;58.15
67748;HTU21D;54543;50.712;6.070;2023-02-28T10:47:33;3.76;54.41
67748;HTU21D;54543;50.712;6.070;2023-02-28T10:49:59;3.99;58.58
67748;HTU21D;54543;50.712;6.070;2023-02-28T10:52:37;4.26;51.16
67748;HTU21D;54543;50.712;6.070;2023-02-28T10:55:22;4.34;52.01
67748;HTU21D;54543;50.712;6.070;2023-02-28T10:57:49;4.38;55.36
67748;HTU21D;54543;50.712;6.070;2023-02-28T11:00:24;4.42;53.10
67748;HTU21D;54543;50.712;6.070;2023-02-28T11:02:51;4.34;54.81
67748;HTU21D;54543;50.712;6.070;2023-02-28T11:05:31;4.15;50.53
67748;HTU21D;54543;50.712;6.070;2023-02-28T11:10:35;4.13;53.91
67748;HTU21D;54543;50.712;6.070;2023-02-28T11:13:01;4.22;54.98
67748;HTU21D;54543;50.712;6.070;2023-02-28T11:15:32;4.31;54.95
67748;HTU21D;54543;50.712;6.070;2023-02-28T11:18:02;4.39;55.47
67748;HTU21D;54543;50.712;6.070;2023-02-28T11:20:32;4.39;55.16
67748;HTU21D;54543;50.712;6.070;2023-02-28T11:23:00;4.16;54.00
67748;HTU21D;54543;50.712;6.070;2023-02-28T11:25:33;3.91;51.50
67748;HTU21D;54543;50.712;6.070;2023-02-28T11:28:24;3.91;53.52
67748;HTU21D;54543;50.712;6.070;2023-02-28T11:33:44;4.08;54.07
67748;HTU21D;54543;50.712;6.070;2023-02-28T11:36:14;4.14;55.95
67748;HTU21D;54543;50.712;6.070;2023-02-28T11:38:41;4.33;54.65
67748;HTU21D;54543;50.712;6.070;2023-02-28T11:44:17;4.65;47.20
67748;HTU21D;54543;50.712;6.070;2023-02-28T11:46:59;4.68;46.00
67748;HTU21D;54543;50.712;6.070;2023-02-28T11:49:33;4.74;53.43
67748;HTU21D;54543;50.712;6.070;2023-02-28T11:52:28;4.83;47.09
67748;HTU21D;54543;50.712;6.070;2023-02-28T11:55:16;4.68;49.49
67748;HTU21D;54543;50.712;6.070;2023-02-28T12:00:40;4.37;49.73
67748;HTU21D;54543;50.712;6.070;2023-02-28T12:22:30;5.03;51.48
67748;HTU21D;54543;50.712;6.070;2023-02-28T12:27:40;5.37;52.04
67748;HTU21D;54543;50.712;6.070;2023-02-28T12:30:17;5.48;48.89
67748;HTU21D;54543;50.712;6.070;2023-02-28T12:32:52;5.53;51.20
67748;HTU21D;54543;50.712;6.070;2023-02-28T12:35:23;5.54;49.82
67748;HTU21D;54543;50.712;6.070;2023-02-28T12:37:56;5.56;50.58
67748;HTU21D;54543;50.712;6.070;2023-02-28T12:40:47;5.57;45.02
67748;HTU21D;54543;50.712;6.070;2023-02-28T12:43:16;5.60;52.45
67748;HTU21D;54543;50.712;6.070;2023-02-28T12:45:54;5.71;49.70
67748;HTU21D;54543;50.712;6.070;2023-02-28T12:48:40;5.89;48.46
67748;HTU21D;54543;50.712;6.070;2023-02-28T12:51:08;6.05;51.67
67748;HTU21D;54543;50.712;6.070;2023-02-28T12:56:33;6.05;45.53
67748;HTU21D;54543;50.712;6.070;2023-02-28T12:59:25;5.80;47.63
67748;HTU21D;54543;50.712;6.070;2023-02-28T13:08:15;5.80;48.33
67748;HTU21D;54543;50.712;6.070;2023-02-28T13:10:22;5.91;51.52
67748;HTU21D;54543;50.712;6.070;2023-02-28T13:12:54;5.87;45.34
67748;HTU21D;54543;50.712;6.070;2023-02-28T13:15:23;5.78;50.73
67748;HTU21D;54543;50.712;6.070;2023-02-28T13:18:03;5.77;49.11
67748;HTU21D;54543;50.712;6.070;2023-02-28T13:20:37;5.75;48.15
67748;HTU21D;54543;50.712;6.070;2023-02-28T13:24:04;5.70;46.96
67748;HTU21D;54543;50.712;6.070;2023-02-28T13:29:21;5.76;50.96
67748;HTU21D;54543;50.712;6.070;2023-02-28T13:34:35;5.82;49.42
67748;HTU21D;54543;50.712;6.070;2023-02-28T13:39:51;5.80;47.96
67748;HTU21D;54543;50.712;6.070;2023-02-28T13:47:42;5.86;48.13
67748;HTU21D;54543;50.712;6.070;2023-02-28T13:55:25;5.99;49.42
67748;HTU21D;54543;50.712;6.070;2023-02-28T14:03:30;5.99;44.66
67748;HTU21D;54543;50.712;6.070;2023-02-28T14:06:26;5.96;47.44
67748;HTU21D;54543;50.712;6.070;2023-02-28T14:09:05;5.99;49.74
67748;HTU21D;54543;50.712;6.070;2023-02-28T14:11:37;6.06;50.08
67748;HTU21D;54543;50.712;6.070;2023-02-28T14:14:04;6.10;50.03
67748;HTU21D;54543;50.712;6.070;2023-02-28T14:16:39;6.09;46.46
67748;HTU21D;54543;50.712;6.070;2023-02-28T14:19:22;6.06;46.93
67748;HTU21D;54543;50.712;6.070;2023-02-28T14:38:32;5.79;47.08
67748;HTU21D;54543;50.712;6.070;2023-02-28T14:41:00;5.76;50.53
67748;HTU21D;54543;50.712;6.070;2023-02-28T14:43:28;5.72;46.73
67748;HTU21D;54543;50.712;6.070;2023-02-28T14:45:57;5.72;49.63
67748;HTU21D;54543;50.712;6.070;2023-02-28T14:48:24;5.75;50.48
67748;HTU21D;54543;50.712;6.070;2023-02-28T14:50:56;5.77;49.01
67748;HTU21D;54543;50.712;6.070;2023-02-28T14:53:28;5.77;49.47
67748;HTU21D;54543;50.712;6.070;2023-02-28T14:55:54;5.75;49.26
67748;HTU21D;54543;50.712;6.070;2023-02-28T14:58:31;5.70;47.09
67748;HTU21D;54543;50.712;6.070;2023-02-28T15:00:59;5.71;49.37
67748;HTU21D;54543;50.712;6.070;2023-02-28T15:06:00;5.69;48.95
67748;HTU21D;54543;50.712;6.070;2023-02-28T15:08:28;5.75;50.22
67748;HTU21D;54543;50.712;6.070;2023-02-28T15:11:00;5.79;47.64
67748;HTU21D;54543;50.712;6.070;2023-02-28T15:16:04;6.08;47.97
67748;HTU21D;54543;50.712;6.070;2023-02-28T15:18:54;6.25;49.37
67748;HTU21D;54543;50.712;6.070;2023-02-28T15:21:29;6.48;49.35
67748;HTU21D;54543;50.712;6.070;2023-02-28T15:24:01;6.73;50.63
67748;HTU21D;54543;50.712;6.070;2023-02-28T15:26:39;6.87;49.01
67748;HTU21D;54543;50.712;6.070;2023-02-28T15:29:13;6.98;48.71
67748;HTU21D;54543;50.712;6.070;2023-02-28T15:31:50;7.09;49.86
67748;HTU21D;54543;50.712;6.070;2023-02-28T15:34:21;7.25;45.94
67748;HTU21D;54543;50.712;6.070;2023-02-28T15:36:47;7.42;54.20
67748;HTU21D;54543;50.712;6.070;2023-02-28T15:39:27;7.49;45.13
67748;HTU21D;54543;50.712;6.070;2023-02-28T15:42:16;7.60;47.68
67748;HTU21D;54543;50.712;6.070;2023-02-28T15:44:42;7.70;55.44
67748;HTU21D;54543;50.712;6.070;2023-02-28T15:47:17;7.82;49.76
67748;HTU21D;54543;50.712;6.070;2023-02-28T15:49:48;7.88;51.39
67748;HTU21D;54543;50.712;6.070;2023-02-28T15:52:21;7.84;53.04
67748;HTU21D;54543;50.712;6.070;2023-02-28T15:54:48;7.77;52.51
67748;HTU21D;54543;50.712;6.070;2023-02-28T15:57:25;7.75;50.19
67748;HTU21D;54543;50.712;6.070;2023-02-28T15:59:55;7.68;49.62
67748;HTU21D;54543;50.712;6.070;2023-02-28T16:02:42;7.40;52.01
67748;HTU21D;54543;50.712;6.070;2023-02-28T16:07:40;6.96;52.00
67748;HTU21D;54543;50.712;6.070;2023-02-28T16:10:09;6.76;51.53
67748;HTU21D;54543;50.712;6.070;2023-02-28T16:12:37;6.65;52.24
67748;HTU21D;54543;50.712;6.070;2023-02-28T16:15:23;6.51;49.75
67748;HTU21D;54543;50.712;6.070;2023-02-28T16:17:51;6.35;50.63
67748;HTU21D;54543;50.712;6.070;2023-02-28T16:20:20;6.17;51.27
67748;HTU21D;54543;50.712;6.070;2023-02-28T16:22:46;6.00;51.00
67748;HTU21D;54543;50.712;6.070;2023-02-28T16:25:14;5.85;50.90
67748;HTU21D;54543;50.712;6.070;2023-02-28T16:27:40;5.75;51.30
67748;HTU21D;54543;50.712;6.070;2023-02-28T16:30:07;5.60;46.58
67748;HTU21D;54543;50.712;6.070;2023-02-28T16:32:36;5.43;49.68
67748;HTU21D;54543;50.712;6.070;2023-02-28T16:35:03;5.33;50.76
67748;HTU21D;54543;50.712;6.070;2023-02-28T16:37:28;5.18;49.77
67748;HTU21D;54543;50.712;6.070;2023-02-28T16:39:54;5.09;50.65
67748;HTU21D;54543;50.712;6.070;2023-02-28T16:42:27;5.01;50.27
67748;HTU21D;54543;50.712;6.070;2023-02-28T16:44:54;4.91;51.11
67748;HTU21D;54543;50.712;6.070;2023-02-28T16:47:20;4.83;51.40
67748;HTU21D;54543;50.712;6.070;2023-02-28T16:49:45;4.73;50.85
67748;HTU21D;54543;50.712;6.070;2023-02-28T16:52:13;4.63;50.97
67748;HTU21D;54543;50.712;6.070;2023-02-28T16:54:40;4.53;51.79
67748;HTU21D;54543;50.712;6.070;2023-02-28T16:57:13;4.45;51.98
67748;HTU21D;54543;50.712;6.070;2023-02-28T16:59:40;4.37;51.70
67748;HTU21D;54543;50.712;6.070;2023-02-28T17:02:19;4.29;50.88
67748;HTU21D;54543;50.712;6.070;2023-02-28T17:04:45;4.20;52.23
67748;HTU21D;54543;50.712;6.070;2023-02-28T17:07:13;4.10;52.39
67748;HTU21D;54543;50.712;6.070;2023-02-28T17:09:39;4.02;52.53
67748;HTU21D;54543;50.712;6.070;2023-02-28T17:12:05;3.92;52.37
67748;HTU21D;54543;50.712;6.070;2023-02-28T17:14:31;3.83;52.75
67748;HTU21D;54543;50.712;6.070;2023-02-28T17:16:56;3.72;53.04
67748;HTU21D;54543;50.712;6.070;2023-02-28T17:19:22;3.62;53.17
67748;HTU21D;54543;50.712;6.070;2023-02-28T17:21:47;3.55;53.21
67748;HTU21D;54543;50.712;6.070;2023-02-28T17:24:13;3.47;53.29
67748;HTU21D;54543;50.712;6.070;2023-02-28T17:26:42;3.36;53.69
67748;HTU21D;54543;50.712;6.070;2023-02-28T17:29:20;3.26;53.30
67748;HTU21D;54543;50.712;6.070;2023-02-28T17:31:46;3.17;54.19
67748;HTU21D;54543;50.712;6.070;2023-02-28T17:34:12;3.05;54.36
67748;HTU21D;54543;50.712;6.070;2023-02-28T17:36:44;2.96;54.51
67748;HTU21D;54543;50.712;6.070;2023-02-28T17:39:11;2.85;54.81
67748;HTU21D;54543;50.712;6.070;2023-02-28T17:41:40;2.78;54.98
67748;HTU21D;54543;50.712;6.070;2023-02-28T17:44:06;2.69;55.08
67748;HTU21D;54543;50.712;6.070;2023-02-28T17:46:32;2.60;55.36
67748;HTU21D;54543;50.712;6.070;2023-02-28T17:48:57;2.53;55.56
67748;HTU21D;54543;50.712;6.070;2023-02-28T17:51:24;2.44;55.71